sensor_id;sensor_type;location;lat;lon;timestamp;P1;durP1;ratioP1;P2;durP2;ratioP2
73296;SDS011;61524;50.938;11.396;2022-09-09T00:00:40;4.53;;;2.00;;
73296;SDS011;61524;50.938;11.396;2022-09-09T00:03:12;4.50;;;1.45;;
73296;SDS011;61524;50.938;11.396;2022-09-09T00:05:44;3.33;;;1.67;;
73296;SDS011;61524;50.938;11.396;2022-09-09T00:08:20;5.47;;;1.88;;
73296;SDS011;61524;50.938;11.396;2022-09-09T00:10:59;5.80;;;1.75;;
73296;SDS011;61524;50.938;11.396;2022-09-09T00:13:48;3.85;;;1.42;;
73296;SDS011;61524;50.938;11.396;2022-09-09T00:16:24;5.47;;;2.03;;
73296;SDS011;61524;50.938;11.396;2022-09-09T00:21:37;4.60;;;1.88;;
73296;SDS011;61524;50.938;11.396;2022-09-09T00:24:23;6.50;;;2.08;;
73296;SDS011;61524;50.938;11.396;2022-09-09T00:26:53;5.55;;;1.80;;
73296;SDS011;61524;50.938;11.396;2022-09-09T00:30:13;4.95;;;1.63;;
73296;SDS011;61524;50.938;11.396;2022-09-09T00:32:34;4.63;;;1.50;;
73296;SDS011;61524;50.938;11.396;2022-09-09T00:35:12;3.47;;;1.63;;
73296;SDS011;61524;50.938;11.396;2022-09-09T00:38:24;4.57;;;1.77;;
73296;SDS011;61524;50.938;11.396;2022-09-09T00:43:38;3.92;;;1.55;;
73296;SDS011;61524;50.938;11.396;2022-09-09T00:57:31;3.30;;;1.52;;
73296;SDS011;61524;50.938;11.396;2022-09-09T01:05:51;4.38;;;1.80;;
73296;SDS011;61524;50.938;11.396;2022-09-09T01:10:53;3.05;;;1.88;;
73296;SDS011;61524;50.938;11.396;2022-09-09T01:13:24;5.10;;;1.60;;
73296;SDS011;61524;50.938;11.396;2022-09-09T01:15:50;3.42;;;1.90;;
73296;SDS011;61524;50.938;11.396;2022-09-09T01:18:19;5.13;;;2.08;;
73296;SDS011;61524;50.938;11.396;2022-09-09T01:26:43;6.50;;;1.88;;
73296;SDS011;61524;50.938;11.396;2022-09-09T01:29:15;7.95;;;1.88;;
73296;SDS011;61524;50.938;11.396;2022-09-09T01:34:25;3.85;;;1.50;;
73296;SDS011;61524;50.938;11.396;2022-09-09T01:39:29;5.00;;;2.00;;
73296;SDS011;61524;50.938;11.396;2022-09-09T01:41:56;5.15;;;1.40;;
73296;SDS011;61524;50.938;11.396;2022-09-09T01:44:22;4.22;;;1.75;;
73296;SDS011;61524;50.938;11.396;2022-09-09T01:46:48;4.55;;;1.65;;
73296;SDS011;61524;50.938;11.396;2022-09-09T01:49:14;5.22;;;1.85;;
73296;SDS011;61524;50.938;11.396;2022-09-09T01:51:41;4.32;;;1.60;;
73296;SDS011;61524;50.938;11.396;2022-09-09T01:54:08;5.25;;;1.67;;
73296;SDS011;61524;50.938;11.396;2022-09-09T01:56:47;5.50;;;1.75;;
73296;SDS011;61524;50.938;11.396;2022-09-09T02:08:00;5.28;;;1.70;;
73296;SDS011;61524;50.938;11.396;2022-09-09T02:10:32;3.22;;;1.50;;
73296;SDS011;61524;50.938;11.396;2022-09-09T02:13:07;6.20;;;1.83;;
73296;SDS011;61524;50.938;11.396;2022-09-09T02:18:07;4.05;;;1.50;;
73296;SDS011;61524;50.938;11.396;2022-09-09T02:20:38;4.40;;;1.40;;
73296;SDS011;61524;50.938;11.396;2022-09-09T02:23:05;4.35;;;1.85;;
73296;SDS011;61524;50.938;11.396;2022-09-09T02:25:33;4.50;;;1.67;;
73296;SDS011;61524;50.938;11.396;2022-09-09T02:28:02;3.63;;;1.50;;
73296;SDS011;61524;50.938;11.396;2022-09-09T02:30:32;4.00;;;1.77;;
73296;SDS011;61524;50.938;11.396;2022-09-09T02:33:00;5.78;;;1.35;;
73296;SDS011;61524;50.938;11.396;2022-09-09T02:35:29;3.65;;;1.45;;
73296;SDS011;61524;50.938;11.396;2022-09-09T02:37:57;3.60;;;1.25;;
73296;SDS011;61524;50.938;11.396;2022-09-09T02:40:27;3.50;;;1.10;;
73296;SDS011;61524;50.938;11.396;2022-09-09T02:42:53;4.40;;;1.50;;
73296;SDS011;61524;50.938;11.396;2022-09-09T02:45:20;4.75;;;1.52;;
73296;SDS011;61524;50.938;11.396;2022-09-09T02:47:51;4.30;;;1.23;;
73296;SDS011;61524;50.938;11.396;2022-09-09T02:50:35;3.42;;;1.30;;
73296;SDS011;61524;50.938;11.396;2022-09-09T02:53:24;3.90;;;1.52;;
73296;SDS011;61524;50.938;11.396;2022-09-09T02:56:18;5.82;;;1.60;;
73296;SDS011;61524;50.938;11.396;2022-09-09T02:58:47;3.28;;;1.20;;
73296;SDS011;61524;50.938;11.396;2022-09-09T03:01:13;3.90;;;1.13;;
73296;SDS011;61524;50.938;11.396;2022-09-09T03:03:39;2.97;;;1.35;;
73296;SDS011;61524;50.938;11.396;2022-09-09T03:06:06;3.42;;;1.25;;
73296;SDS011;61524;50.938;11.396;2022-09-09T03:08:33;5.55;;;1.50;;
73296;SDS011;61524;50.938;11.396;2022-09-09T03:10:59;3.83;;;1.50;;
73296;SDS011;61524;50.938;11.396;2022-09-09T03:13:26;2.90;;;1.40;;
73296;SDS011;61524;50.938;11.396;2022-09-09T03:15:52;2.65;;;1.40;;
73296;SDS011;61524;50.938;11.396;2022-09-09T03:18:17;2.40;;;1.08;;
73296;SDS011;61524;50.938;11.396;2022-09-09T03:20:43;5.32;;;1.73;;
73296;SDS011;61524;50.938;11.396;2022-09-09T03:23:08;4.55;;;1.08;;
73296;SDS011;61524;50.938;11.396;2022-09-09T03:25:34;3.00;;;1.65;;
73296;SDS011;61524;50.938;11.396;2022-09-09T03:28:00;2.83;;;1.23;;
73296;SDS011;61524;50.938;11.396;2022-09-09T03:30:26;3.63;;;1.27;;
73296;SDS011;61524;50.938;11.396;2022-09-09T03:32:52;3.25;;;1.40;;
73296;SDS011;61524;50.938;11.396;2022-09-09T03:35:18;4.28;;;1.60;;
73296;SDS011;61524;50.938;11.396;2022-09-09T03:37:44;3.97;;;1.27;;
73296;SDS011;61524;50.938;11.396;2022-09-09T03:40:10;4.40;;;1.60;;
73296;SDS011;61524;50.938;11.396;2022-09-09T03:42:36;3.42;;;1.50;;
73296;SDS011;61524;50.938;11.396;2022-09-09T03:45:03;2.67;;;1.20;;
73296;SDS011;61524;50.938;11.396;2022-09-09T03:47:35;3.13;;;1.23;;
73296;SDS011;61524;50.938;11.396;2022-09-09T03:50:01;2.90;;;1.50;;
73296;SDS011;61524;50.938;11.396;2022-09-09T03:52:29;3.45;;;1.20;;
73296;SDS011;61524;50.938;11.396;2022-09-09T03:54:55;3.42;;;1.70;;
73296;SDS011;61524;50.938;11.396;2022-09-09T03:57:21;3.15;;;1.30;;
73296;SDS011;61524;50.938;11.396;2022-09-09T03:59:47;6.07;;;1.70;;
73296;SDS011;61524;50.938;11.396;2022-09-09T04:02:12;5.13;;;1.35;;
73296;SDS011;61524;50.938;11.396;2022-09-09T04:04:38;4.70;;;1.30;;
73296;SDS011;61524;50.938;11.396;2022-09-09T04:07:03;3.15;;;1.20;;
73296;SDS011;61524;50.938;11.396;2022-09-09T04:09:31;3.67;;;1.10;;
73296;SDS011;61524;50.938;11.396;2022-09-09T04:11:57;4.47;;;1.40;;
73296;SDS011;61524;50.938;11.396;2022-09-09T04:14:22;5.05;;;1.20;;
73296;SDS011;61524;50.938;11.396;2022-09-09T04:16:48;3.63;;;1.50;;
73296;SDS011;61524;50.938;11.396;2022-09-09T04:19:13;3.08;;;1.30;;
73296;SDS011;61524;50.938;11.396;2022-09-09T04:21:39;4.75;;;1.20;;
73296;SDS011;61524;50.938;11.396;2022-09-09T04:24:06;6.85;;;1.88;;
73296;SDS011;61524;50.938;11.396;2022-09-09T04:26:34;3.70;;;1.30;;
73296;SDS011;61524;50.938;11.396;2022-09-09T04:29:01;4.53;;;1.50;;
73296;SDS011;61524;50.938;11.396;2022-09-09T04:31:28;3.20;;;1.38;;
73296;SDS011;61524;50.938;11.396;2022-09-09T04:33:54;4.40;;;1.27;;
73296;SDS011;61524;50.938;11.396;2022-09-09T04:36:19;4.80;;;1.70;;
73296;SDS011;61524;50.938;11.396;2022-09-09T04:38:45;4.53;;;1.40;;
73296;SDS011;61524;50.938;11.396;2022-09-09T04:41:11;3.80;;;1.63;;
73296;SDS011;61524;50.938;11.396;2022-09-09T04:43:37;5.20;;;1.60;;
73296;SDS011;61524;50.938;11.396;2022-09-09T04:46:03;3.92;;;1.38;;
73296;SDS011;61524;50.938;11.396;2022-09-09T04:48:30;5.28;;;1.45;;
73296;SDS011;61524;50.938;11.396;2022-09-09T04:51:06;5.28;;;1.60;;
73296;SDS011;61524;50.938;11.396;2022-09-09T04:53:35;3.30;;;1.40;;
73296;SDS011;61524;50.938;11.396;2022-09-09T04:58:27;3.50;;;1.30;;
73296;SDS011;61524;50.938;11.396;2022-09-09T05:00:53;4.18;;;1.40;;
73296;SDS011;61524;50.938;11.396;2022-09-09T05:03:19;4.00;;;1.38;;
73296;SDS011;61524;50.938;11.396;2022-09-09T05:05:44;4.32;;;1.58;;
73296;SDS011;61524;50.938;11.396;2022-09-09T05:08:10;3.60;;;1.60;;
73296;SDS011;61524;50.938;11.396;2022-09-09T05:10:36;6.15;;;1.70;;
73296;SDS011;61524;50.938;11.396;2022-09-09T05:13:03;3.45;;;1.40;;
73296;SDS011;61524;50.938;11.396;2022-09-09T05:15:30;3.30;;;1.52;;
73296;SDS011;61524;50.938;11.396;2022-09-09T05:17:57;4.20;;;1.63;;
73296;SDS011;61524;50.938;11.396;2022-09-09T05:20:24;5.32;;;1.65;;
73296;SDS011;61524;50.938;11.396;2022-09-09T05:22:52;5.57;;;1.38;;
73296;SDS011;61524;50.938;11.396;2022-09-09T05:25:21;3.45;;;1.50;;
73296;SDS011;61524;50.938;11.396;2022-09-09T05:27:47;5.72;;;1.80;;
73296;SDS011;61524;50.938;11.396;2022-09-09T05:32:39;2.80;;;1.20;;
73296;SDS011;61524;50.938;11.396;2022-09-09T05:35:05;5.25;;;1.75;;
73296;SDS011;61524;50.938;11.396;2022-09-09T05:37:31;8.43;;;1.63;;
73296;SDS011;61524;50.938;11.396;2022-09-09T05:39:56;3.92;;;1.45;;
73296;SDS011;61524;50.938;11.396;2022-09-09T05:42:23;4.43;;;1.63;;
73296;SDS011;61524;50.938;11.396;2022-09-09T05:44:48;4.82;;;1.75;;
73296;SDS011;61524;50.938;11.396;2022-09-09T05:47:14;5.13;;;1.65;;
73296;SDS011;61524;50.938;11.396;2022-09-09T05:49:40;4.03;;;1.50;;
73296;SDS011;61524;50.938;11.396;2022-09-09T05:52:05;3.03;;;1.20;;
73296;SDS011;61524;50.938;11.396;2022-09-09T05:54:31;3.53;;;1.85;;
73296;SDS011;61524;50.938;11.396;2022-09-09T05:56:57;4.18;;;1.70;;
73296;SDS011;61524;50.938;11.396;2022-09-09T05:59:23;2.78;;;1.58;;
73296;SDS011;61524;50.938;11.396;2022-09-09T06:01:48;3.13;;;1.80;;
73296;SDS011;61524;50.938;11.396;2022-09-09T06:04:14;3.08;;;1.40;;
73296;SDS011;61524;50.938;11.396;2022-09-09T06:06:40;3.35;;;1.30;;
73296;SDS011;61524;50.938;11.396;2022-09-09T06:09:07;3.38;;;1.27;;
73296;SDS011;61524;50.938;11.396;2022-09-09T06:11:37;5.55;;;1.83;;
73296;SDS011;61524;50.938;11.396;2022-09-09T06:14:04;5.70;;;1.50;;
73296;SDS011;61524;50.938;11.396;2022-09-09T06:16:30;4.13;;;1.20;;
73296;SDS011;61524;50.938;11.396;2022-09-09T06:18:59;3.95;;;1.20;;
73296;SDS011;61524;50.938;11.396;2022-09-09T06:21:26;4.40;;;1.63;;
73296;SDS011;61524;50.938;11.396;2022-09-09T06:23:54;5.50;;;1.40;;
73296;SDS011;61524;50.938;11.396;2022-09-09T06:26:20;5.15;;;1.30;;
73296;SDS011;61524;50.938;11.396;2022-09-09T06:28:51;3.33;;;1.42;;
73296;SDS011;61524;50.938;11.396;2022-09-09T06:31:19;2.70;;;1.15;;
73296;SDS011;61524;50.938;11.396;2022-09-09T06:33:46;4.90;;;1.23;;
73296;SDS011;61524;50.938;11.396;2022-09-09T06:38:41;4.85;;;1.60;;
73296;SDS011;61524;50.938;11.396;2022-09-09T06:41:08;3.85;;;1.35;;
73296;SDS011;61524;50.938;11.396;2022-09-09T06:43:35;3.97;;;1.25;;
73296;SDS011;61524;50.938;11.396;2022-09-09T06:46:05;5.00;;;1.45;;
73296;SDS011;61524;50.938;11.396;2022-09-09T06:48:31;3.22;;;0.90;;
73296;SDS011;61524;50.938;11.396;2022-09-09T06:51:16;3.95;;;1.20;;
73296;SDS011;61524;50.938;11.396;2022-09-09T06:53:46;5.35;;;1.20;;
73296;SDS011;61524;50.938;11.396;2022-09-09T06:58:48;6.05;;;1.30;;
73296;SDS011;61524;50.938;11.396;2022-09-09T07:01:19;6.47;;;1.48;;
73296;SDS011;61524;50.938;11.396;2022-09-09T07:03:49;5.93;;;1.17;;
73296;SDS011;61524;50.938;11.396;2022-09-09T07:06:19;4.72;;;1.23;;
73296;SDS011;61524;50.938;11.396;2022-09-09T07:08:50;2.92;;;1.05;;
73296;SDS011;61524;50.938;11.396;2022-09-09T07:11:20;1.88;;;1.02;;
73296;SDS011;61524;50.938;11.396;2022-09-09T07:13:47;3.08;;;1.00;;
73296;SDS011;61524;50.938;11.396;2022-09-09T07:16:17;4.90;;;1.00;;
73296;SDS011;61524;50.938;11.396;2022-09-09T07:18:44;3.58;;;1.13;;
73296;SDS011;61524;50.938;11.396;2022-09-09T07:21:10;5.80;;;1.23;;
73296;SDS011;61524;50.938;11.396;2022-09-09T07:23:37;3.20;;;0.98;;
73296;SDS011;61524;50.938;11.396;2022-09-09T07:26:06;2.95;;;1.20;;
73296;SDS011;61524;50.938;11.396;2022-09-09T07:28:33;3.20;;;0.90;;
73296;SDS011;61524;50.938;11.396;2022-09-09T07:31:00;2.88;;;1.25;;
73296;SDS011;61524;50.938;11.396;2022-09-09T07:33:28;3.38;;;0.80;;
73296;SDS011;61524;50.938;11.396;2022-09-09T07:38:47;3.97;;;1.40;;
73296;SDS011;61524;50.938;11.396;2022-09-09T07:41:19;2.75;;;1.02;;
73296;SDS011;61524;50.938;11.396;2022-09-09T07:43:47;5.70;;;1.20;;
73296;SDS011;61524;50.938;11.396;2022-09-09T07:46:14;4.07;;;1.13;;
73296;SDS011;61524;50.938;11.396;2022-09-09T07:48:46;3.10;;;1.00;;
73296;SDS011;61524;50.938;11.396;2022-09-09T07:51:16;2.78;;;1.10;;
73296;SDS011;61524;50.938;11.396;2022-09-09T07:53:45;2.92;;;1.10;;
73296;SDS011;61524;50.938;11.396;2022-09-09T07:56:12;4.07;;;1.48;;
73296;SDS011;61524;50.938;11.396;2022-09-09T07:58:41;3.28;;;1.48;;
73296;SDS011;61524;50.938;11.396;2022-09-09T08:01:10;2.38;;;0.82;;
73296;SDS011;61524;50.938;11.396;2022-09-09T08:03:38;2.47;;;1.10;;
73296;SDS011;61524;50.938;11.396;2022-09-09T08:06:05;2.92;;;1.30;;
73296;SDS011;61524;50.938;11.396;2022-09-09T08:08:32;4.90;;;1.20;;
73296;SDS011;61524;50.938;11.396;2022-09-09T08:11:05;3.15;;;1.20;;
73296;SDS011;61524;50.938;11.396;2022-09-09T08:13:39;4.88;;;1.13;;
73296;SDS011;61524;50.938;11.396;2022-09-09T08:16:07;3.55;;;1.08;;
73296;SDS011;61524;50.938;11.396;2022-09-09T08:18:34;4.65;;;1.52;;
73296;SDS011;61524;50.938;11.396;2022-09-09T08:21:07;4.55;;;1.50;;
73296;SDS011;61524;50.938;11.396;2022-09-09T08:23:34;2.25;;;0.82;;
73296;SDS011;61524;50.938;11.396;2022-09-09T08:26:03;3.47;;;1.20;;
73296;SDS011;61524;50.938;11.396;2022-09-09T08:28:38;4.82;;;1.20;;
73296;SDS011;61524;50.938;11.396;2022-09-09T08:31:08;3.10;;;1.35;;
73296;SDS011;61524;50.938;11.396;2022-09-09T08:33:34;4.05;;;0.90;;
73296;SDS011;61524;50.938;11.396;2022-09-09T08:36:02;5.45;;;1.27;;
73296;SDS011;61524;50.938;11.396;2022-09-09T08:38:28;3.08;;;1.25;;
73296;SDS011;61524;50.938;11.396;2022-09-09T08:40:53;2.45;;;1.02;;
73296;SDS011;61524;50.938;11.396;2022-09-09T08:43:35;5.10;;;1.33;;
73296;SDS011;61524;50.938;11.396;2022-09-09T08:46:09;3.55;;;1.10;;
73296;SDS011;61524;50.938;11.396;2022-09-09T08:48:45;4.13;;;1.10;;
73296;SDS011;61524;50.938;11.396;2022-09-09T08:51:21;4.13;;;1.05;;
73296;SDS011;61524;50.938;11.396;2022-09-09T08:53:49;2.55;;;1.00;;
73296;SDS011;61524;50.938;11.396;2022-09-09T08:56:21;5.30;;;1.33;;
73296;SDS011;61524;50.938;11.396;2022-09-09T08:58:49;3.08;;;0.88;;
73296;SDS011;61524;50.938;11.396;2022-09-09T09:06:53;4.35;;;0.98;;
73296;SDS011;61524;50.938;11.396;2022-09-09T09:12:29;5.35;;;1.27;;
73296;SDS011;61524;50.938;11.396;2022-09-09T09:15:00;4.57;;;1.13;;
73296;SDS011;61524;50.938;11.396;2022-09-09T09:17:27;4.53;;;1.33;;
73296;SDS011;61524;50.938;11.396;2022-09-09T09:19:56;6.05;;;1.20;;
73296;SDS011;61524;50.938;11.396;2022-09-09T09:22:41;4.13;;;1.02;;
73296;SDS011;61524;50.938;11.396;2022-09-09T09:25:21;5.18;;;0.80;;
73296;SDS011;61524;50.938;11.396;2022-09-09T09:30:21;4.63;;;1.85;;
73296;SDS011;61524;50.938;11.396;2022-09-09T09:33:02;3.15;;;1.15;;
73296;SDS011;61524;50.938;11.396;2022-09-09T09:35:39;3.78;;;1.20;;
73296;SDS011;61524;50.938;11.396;2022-09-09T09:38:17;4.78;;;1.40;;
73296;SDS011;61524;50.938;11.396;2022-09-09T09:40:53;2.60;;;1.13;;
73296;SDS011;61524;50.938;11.396;2022-09-09T09:43:33;4.88;;;0.90;;
73296;SDS011;61524;50.938;11.396;2022-09-09T09:46:00;8.27;;;1.70;;
73296;SDS011;61524;50.938;11.396;2022-09-09T09:48:29;3.83;;;1.05;;
73296;SDS011;61524;50.938;11.396;2022-09-09T09:58:24;4.53;;;1.20;;
73296;SDS011;61524;50.938;11.396;2022-09-09T10:00:53;3.60;;;0.90;;
73296;SDS011;61524;50.938;11.396;2022-09-09T10:05:50;3.65;;;0.93;;
73296;SDS011;61524;50.938;11.396;2022-09-09T10:08:16;5.97;;;1.25;;
73296;SDS011;61524;50.938;11.396;2022-09-09T10:10:47;3.83;;;1.10;;
73296;SDS011;61524;50.938;11.396;2022-09-09T10:13:27;6.25;;;1.00;;
73296;SDS011;61524;50.938;11.396;2022-09-09T10:46:27;4.07;;;1.30;;
73296;SDS011;61524;50.938;11.396;2022-09-09T10:54:36;4.63;;;1.00;;
73296;SDS011;61524;50.938;11.396;2022-09-09T10:57:22;3.05;;;0.60;;
73296;SDS011;61524;50.938;11.396;2022-09-09T10:59:54;4.18;;;0.90;;
73296;SDS011;61524;50.938;11.396;2022-09-09T11:02:28;4.43;;;0.90;;
73296;SDS011;61524;50.938;11.396;2022-09-09T11:04:57;2.92;;;1.00;;
73296;SDS011;61524;50.938;11.396;2022-09-09T11:07:34;3.03;;;0.70;;
73296;SDS011;61524;50.938;11.396;2022-09-09T11:10:05;4.07;;;0.95;;
73296;SDS011;61524;50.938;11.396;2022-09-09T11:12:38;5.25;;;1.23;;
73296;SDS011;61524;50.938;11.396;2022-09-09T11:15:12;3.38;;;0.90;;
73296;SDS011;61524;50.938;11.396;2022-09-09T11:17:46;2.65;;;0.90;;
73296;SDS011;61524;50.938;11.396;2022-09-09T11:20:15;2.97;;;1.10;;
73296;SDS011;61524;50.938;11.396;2022-09-09T11:22:55;3.00;;;1.05;;
73296;SDS011;61524;50.938;11.396;2022-09-09T11:25:32;3.70;;;0.98;;
73296;SDS011;61524;50.938;11.396;2022-09-09T11:33:58;2.58;;;1.05;;
73296;SDS011;61524;50.938;11.396;2022-09-09T11:39:38;1.75;;;0.80;;
73296;SDS011;61524;50.938;11.396;2022-09-09T11:42:20;5.32;;;0.98;;
73296;SDS011;61524;50.938;11.396;2022-09-09T11:44:48;3.60;;;1.10;;
73296;SDS011;61524;50.938;11.396;2022-09-09T11:47:24;3.08;;;1.00;;
73296;SDS011;61524;50.938;11.396;2022-09-09T11:50:06;2.53;;;0.63;;
73296;SDS011;61524;50.938;11.396;2022-09-09T11:52:42;4.03;;;1.10;;
73296;SDS011;61524;50.938;11.396;2022-09-09T11:55:32;2.88;;;1.00;;
73296;SDS011;61524;50.938;11.396;2022-09-09T11:58:05;2.22;;;0.80;;
73296;SDS011;61524;50.938;11.396;2022-09-09T12:00:42;2.78;;;0.80;;
73296;SDS011;61524;50.938;11.396;2022-09-09T12:03:32;2.40;;;0.85;;
73296;SDS011;61524;50.938;11.396;2022-09-09T12:06:15;3.10;;;0.60;;
73296;SDS011;61524;50.938;11.396;2022-09-09T12:08:58;2.88;;;0.50;;
73296;SDS011;61524;50.938;11.396;2022-09-09T12:11:40;2.95;;;0.90;;
73296;SDS011;61524;50.938;11.396;2022-09-09T12:14:18;2.03;;;0.85;;
73296;SDS011;61524;50.938;11.396;2022-09-09T12:16:48;2.75;;;0.80;;
73296;SDS011;61524;50.938;11.396;2022-09-09T12:19:19;2.35;;;0.65;;
73296;SDS011;61524;50.938;11.396;2022-09-09T12:28:01;2.78;;;0.60;;
73296;SDS011;61524;50.938;11.396;2022-09-09T12:33:50;2.45;;;0.80;;
73296;SDS011;61524;50.938;11.396;2022-09-09T12:36:19;4.30;;;1.20;;
73296;SDS011;61524;50.938;11.396;2022-09-09T12:38:52;6.70;;;0.88;;
73296;SDS011;61524;50.938;11.396;2022-09-09T12:41:23;4.55;;;1.17;;
73296;SDS011;61524;50.938;11.396;2022-09-09T12:43:50;3.72;;;1.48;;
73296;SDS011;61524;50.938;11.396;2022-09-09T12:52:08;3.80;;;0.98;;
73296;SDS011;61524;50.938;11.396;2022-09-09T12:54:49;2.63;;;0.60;;
73296;SDS011;61524;50.938;11.396;2022-09-09T12:57:17;1.80;;;0.75;;
73296;SDS011;61524;50.938;11.396;2022-09-09T12:59:43;2.97;;;0.60;;
73296;SDS011;61524;50.938;11.396;2022-09-09T13:02:20;1.75;;;0.70;;
73296;SDS011;61524;50.938;11.396;2022-09-09T13:04:47;1.65;;;0.60;;
73296;SDS011;61524;50.938;11.396;2022-09-09T13:07:15;3.63;;;0.60;;
73296;SDS011;61524;50.938;11.396;2022-09-09T13:09:41;1.65;;;0.70;;
73296;SDS011;61524;50.938;11.396;2022-09-09T13:12:18;3.08;;;0.88;;
73296;SDS011;61524;50.938;11.396;2022-09-09T13:14:47;2.00;;;0.60;;
73296;SDS011;61524;50.938;11.396;2022-09-09T13:17:22;2.97;;;0.88;;
73296;SDS011;61524;50.938;11.396;2022-09-09T13:19:49;3.40;;;0.88;;
73296;SDS011;61524;50.938;11.396;2022-09-09T13:22:36;3.28;;;0.63;;
73296;SDS011;61524;50.938;11.396;2022-09-09T13:27:36;3.38;;;0.90;;
73296;SDS011;61524;50.938;11.396;2022-09-09T13:30:20;5.18;;;0.93;;
73296;SDS011;61524;50.938;11.396;2022-09-09T13:32:48;3.20;;;0.70;;
73296;SDS011;61524;50.938;11.396;2022-09-09T13:35:45;1.85;;;0.60;;
73296;SDS011;61524;50.938;11.396;2022-09-09T13:38:16;2.35;;;0.63;;
73296;SDS011;61524;50.938;11.396;2022-09-09T13:40:55;3.10;;;0.75;;
73296;SDS011;61524;50.938;11.396;2022-09-09T13:43:28;4.85;;;0.88;;
73296;SDS011;61524;50.938;11.396;2022-09-09T13:46:28;2.55;;;0.88;;
73296;SDS011;61524;50.938;11.396;2022-09-09T13:48:57;6.28;;;1.00;;
73296;SDS011;61524;50.938;11.396;2022-09-09T13:51:34;3.28;;;1.02;;
73296;SDS011;61524;50.938;11.396;2022-09-09T13:54:11;2.50;;;1.00;;
73296;SDS011;61524;50.938;11.396;2022-09-09T13:56:38;5.30;;;1.15;;
73296;SDS011;61524;50.938;11.396;2022-09-09T13:59:06;2.72;;;1.25;;
73296;SDS011;61524;50.938;11.396;2022-09-09T14:01:35;2.78;;;1.20;;
73296;SDS011;61524;50.938;11.396;2022-09-09T14:04:02;7.30;;;1.00;;
73296;SDS011;61524;50.938;11.396;2022-09-09T14:06:27;5.15;;;1.08;;
73296;SDS011;61524;50.938;11.396;2022-09-09T14:08:54;4.18;;;1.00;;
73296;SDS011;61524;50.938;11.396;2022-09-09T14:11:19;5.13;;;1.15;;
73296;SDS011;61524;50.938;11.396;2022-09-09T14:13:46;5.65;;;1.30;;
73296;SDS011;61524;50.938;11.396;2022-09-09T14:16:15;4.50;;;1.05;;
73296;SDS011;61524;50.938;11.396;2022-09-09T14:18:44;3.15;;;0.90;;
73296;SDS011;61524;50.938;11.396;2022-09-09T14:21:10;6.65;;;1.23;;
73296;SDS011;61524;50.938;11.396;2022-09-09T14:23:37;4.60;;;1.52;;
73296;SDS011;61524;50.938;11.396;2022-09-09T14:26:03;5.55;;;1.20;;
73296;SDS011;61524;50.938;11.396;2022-09-09T14:28:32;3.80;;;1.00;;
73296;SDS011;61524;50.938;11.396;2022-09-09T14:31:02;4.15;;;1.25;;
73296;SDS011;61524;50.938;11.396;2022-09-09T14:33:29;4.43;;;0.90;;
73296;SDS011;61524;50.938;11.396;2022-09-09T14:35:55;2.15;;;0.93;;
73296;SDS011;61524;50.938;11.396;2022-09-09T14:38:28;2.17;;;0.60;;
73296;SDS011;61524;50.938;11.396;2022-09-09T14:40:55;2.55;;;0.80;;
73296;SDS011;61524;50.938;11.396;2022-09-09T14:43:21;2.97;;;0.70;;
73296;SDS011;61524;50.938;11.396;2022-09-09T14:45:47;1.48;;;0.65;;
73296;SDS011;61524;50.938;11.396;2022-09-09T14:48:13;2.83;;;0.70;;
73296;SDS011;61524;50.938;11.396;2022-09-09T14:50:40;2.33;;;0.60;;
73296;SDS011;61524;50.938;11.396;2022-09-09T14:53:06;2.55;;;0.82;;
73296;SDS011;61524;50.938;11.396;2022-09-09T14:55:33;1.70;;;0.60;;
73296;SDS011;61524;50.938;11.396;2022-09-09T14:57:59;2.75;;;0.80;;
73296;SDS011;61524;50.938;11.396;2022-09-09T15:00:24;2.42;;;0.43;;
73296;SDS011;61524;50.938;11.396;2022-09-09T15:02:54;3.53;;;0.77;;
73296;SDS011;61524;50.938;11.396;2022-09-09T15:05:20;1.83;;;0.70;;
73296;SDS011;61524;50.938;11.396;2022-09-09T15:07:46;1.35;;;0.43;;
73296;SDS011;61524;50.938;11.396;2022-09-09T15:10:13;2.67;;;0.80;;
73296;SDS011;61524;50.938;11.396;2022-09-09T15:12:39;3.90;;;0.68;;
73296;SDS011;61524;50.938;11.396;2022-09-09T15:15:04;2.60;;;0.50;;
73296;SDS011;61524;50.938;11.396;2022-09-09T15:17:30;2.05;;;0.70;;
73296;SDS011;61524;50.938;11.396;2022-09-09T15:19:56;4.30;;;0.63;;
73296;SDS011;61524;50.938;11.396;2022-09-09T15:22:22;2.92;;;0.70;;
73296;SDS011;61524;50.938;11.396;2022-09-09T15:24:49;1.90;;;0.60;;
73296;SDS011;61524;50.938;11.396;2022-09-09T15:27:15;2.55;;;0.90;;
73296;SDS011;61524;50.938;11.396;2022-09-09T15:29:41;3.35;;;1.15;;
73296;SDS011;61524;50.938;11.396;2022-09-09T15:32:07;0.93;;;0.40;;
73296;SDS011;61524;50.938;11.396;2022-09-09T15:34:33;1.77;;;0.70;;
73296;SDS011;61524;50.938;11.396;2022-09-09T15:36:58;2.08;;;1.17;;
73296;SDS011;61524;50.938;11.396;2022-09-09T15:39:25;3.22;;;0.85;;
73296;SDS011;61524;50.938;11.396;2022-09-09T15:41:50;2.00;;;0.80;;
73296;SDS011;61524;50.938;11.396;2022-09-09T15:44:16;3.47;;;0.60;;
73296;SDS011;61524;50.938;11.396;2022-09-09T15:46:50;3.45;;;1.25;;
73296;SDS011;61524;50.938;11.396;2022-09-09T15:51:53;2.40;;;0.47;;
73296;SDS011;61524;50.938;11.396;2022-09-09T15:54:20;1.27;;;0.73;;
73296;SDS011;61524;50.938;11.396;2022-09-09T15:56:56;1.95;;;0.50;;
73296;SDS011;61524;50.938;11.396;2022-09-09T15:59:23;0.98;;;0.30;;
73296;SDS011;61524;50.938;11.396;2022-09-09T16:01:50;2.38;;;0.70;;
73296;SDS011;61524;50.938;11.396;2022-09-09T16:04:19;2.38;;;1.00;;
73296;SDS011;61524;50.938;11.396;2022-09-09T16:06:48;4.18;;;0.80;;
73296;SDS011;61524;50.938;11.396;2022-09-09T16:09:15;2.80;;;0.77;;
73296;SDS011;61524;50.938;11.396;2022-09-09T16:11:40;1.35;;;0.50;;
73296;SDS011;61524;50.938;11.396;2022-09-09T16:14:06;2.03;;;0.80;;
73296;SDS011;61524;50.938;11.396;2022-09-09T16:16:32;1.98;;;0.50;;
73296;SDS011;61524;50.938;11.396;2022-09-09T16:18:58;3.08;;;0.80;;
73296;SDS011;61524;50.938;11.396;2022-09-09T16:21:29;1.45;;;0.50;;
73296;SDS011;61524;50.938;11.396;2022-09-09T16:23:57;1.30;;;0.30;;
73296;SDS011;61524;50.938;11.396;2022-09-09T16:26:24;1.70;;;0.60;;
73296;SDS011;61524;50.938;11.396;2022-09-09T16:28:50;2.47;;;0.60;;
73296;SDS011;61524;50.938;11.396;2022-09-09T16:31:17;3.08;;;1.00;;
73296;SDS011;61524;50.938;11.396;2022-09-09T16:33:46;2.13;;;0.70;;
73296;SDS011;61524;50.938;11.396;2022-09-09T16:36:14;2.67;;;0.77;;
73296;SDS011;61524;50.938;11.396;2022-09-09T16:38:41;3.95;;;0.80;;
73296;SDS011;61524;50.938;11.396;2022-09-09T16:41:11;2.55;;;0.82;;
73296;SDS011;61524;50.938;11.396;2022-09-09T16:43:38;4.72;;;0.60;;
73296;SDS011;61524;50.938;11.396;2022-09-09T16:46:15;3.17;;;0.80;;
73296;SDS011;61524;50.938;11.396;2022-09-09T16:48:42;3.53;;;1.02;;
73296;SDS011;61524;50.938;11.396;2022-09-09T16:51:12;3.17;;;1.20;;
73296;SDS011;61524;50.938;11.396;2022-09-09T16:53:39;3.42;;;0.80;;
73296;SDS011;61524;50.938;11.396;2022-09-09T16:56:08;6.32;;;1.13;;
73296;SDS011;61524;50.938;11.396;2022-09-09T16:58:35;3.50;;;1.00;;
73296;SDS011;61524;50.938;11.396;2022-09-09T17:01:02;3.15;;;1.00;;
73296;SDS011;61524;50.938;11.396;2022-09-09T17:03:29;3.20;;;0.85;;
73296;SDS011;61524;50.938;11.396;2022-09-09T17:05:56;3.88;;;1.20;;
73296;SDS011;61524;50.938;11.396;2022-09-09T17:10:48;6.65;;;1.08;;
73296;SDS011;61524;50.938;11.396;2022-09-09T17:15:40;4.47;;;1.10;;
73296;SDS011;61524;50.938;11.396;2022-09-09T17:18:07;1.92;;;0.60;;
73296;SDS011;61524;50.938;11.396;2022-09-09T17:20:37;2.65;;;0.90;;